Time;durP1;ratioP1;P1;durP2;ratioP2;P2;SDS_P1;SDS_P2;PMS_P1;PMS_P2;Temp;Humidity;BMP_temperature;BMP_pressure;BME280_temperature;BME280_humidity;BME280_pressure;Samples;Min_cycle;Max_cycle;Signal;HPM_P1;HPM_P2
2021/06/15 17:24:06;;;;;;;5.75;1.40;;;;;;;29.32;27.02;98765.03;5171744;27;20340;-71
2021/06/15 17:26:32;;;;;;;5.70;1.88;;;;;;;28.75;27.44;98763.34;5150797;27;20029;-71
2021/06/15 17:28:58;;;;;;;4.03;1.05;;;;;;;28.54;30.28;98766.19;5131794;27;20027;-71
2021/06/15 17:31:24;;;;;;;7.28;1.40;;;;;;;28.14;32.76;98764.44;5130162;28;20065;-71
2021/06/15 17:33:49;;;;;;;2.72;1.50;;;;;;;27.68;34.74;98760.56;5130302;28;20460;-71
2021/06/15 17:36:16;;;;;;;3.58;1.02;;;;;;;27.72;34.59;98759.34;5129918;28;20106;-71
2021/06/15 17:38:47;;;;;;;2.78;1.20;;;;;;;27.68;33.98;98757.91;5130069;27;20031;-74
2021/06/15 17:41:13;;;;;;;7.20;1.13;;;;;;;27.64;34.24;98764.47;5129943;28;20026;-74
2021/06/15 17:43:39;;;;;;;3.03;1.20;;;;;;;27.40;34.37;98759.50;5129745;28;20059;-74
2021/06/15 17:46:05;;;;;;;4.88;1.52;;;;;;;27.31;34.04;98754.97;5129722;27;20055;-74
2021/06/15 17:48:30;;;;;;;2.22;1.30;;;;;;;27.31;34.44;98758.47;5129610;27;20023;-74
2021/06/15 17:50:56;;;;;;;2.63;1.60;;;;;;;27.11;34.50;98756.72;5129762;28;20058;-74
2021/06/15 17:53:21;;;;;;;2.63;1.17;;;;;;;27.16;35.24;98758.00;5111542;28;20460;-74
2021/06/15 17:55:47;;;;;;;6.88;1.25;;;;;;;26.96;35.05;98755.34;5129748;28;20026;-72
2021/06/15 17:58:14;;;;;;;3.08;1.17;;;;;;;26.92;35.06;98760.06;5129494;27;20016;-72
2021/06/15 18:00:41;;;;;;;2.17;1.00;;;;;;;26.68;35.38;98752.38;5129718;28;20102;-74
2021/06/15 18:03:07;;;;;;;1.67;1.40;;;;;;;26.58;36.31;98756.78;5129829;28;20031;-73
2021/06/15 18:08:02;;;;;;;3.80;1.23;;;;;;;26.36;36.62;98747.94;5129407;27;20070;-73
2021/06/15 18:10:28;;;;;;;3.83;1.70;;;;;;;26.19;36.57;98756.44;5129464;28;20027;-75
2021/06/15 18:12:55;;;;;;;2.72;1.20;;;;;;;26.25;37.17;98755.94;5129462;28;20026;-75
2021/06/15 18:15:23;;;;;;;2.15;1.20;;;;;;;26.01;36.90;98752.66;5129468;28;20019;-73
2021/06/15 18:17:49;;;;;;;2.30;1.30;;;;;;;25.83;37.51;98755.00;5129129;27;20114;-72
2021/06/15 18:20:15;;;;;;;4.18;1.52;;;;;;;25.61;38.68;98761.16;5129290;28;20161;-73
2021/06/15 18:22:41;;;;;;;2.05;1.35;;;;;;;25.54;38.44;98749.34;5129218;28;20054;-73
2021/06/15 18:25:08;;;;;;;1.45;1.15;;;;;;;25.28;39.42;98762.03;5129244;28;20442;-72
2021/06/15 18:27:33;;;;;;;3.58;1.38;;;;;;;25.19;39.27;98766.25;5128840;28;20108;-72
2021/06/15 18:29:58;;;;;;;4.10;1.30;;;;;;;25.13;38.93;98761.41;5129179;28;20024;-72
2021/06/15 18:32:24;;;;;;;5.15;1.35;;;;;;;24.88;39.53;98762.44;5129342;28;20100;-72
2021/06/15 18:34:49;;;;;;;4.50;1.42;;;;;;;24.81;39.85;98762.09;5119007;28;20102;-71
2021/06/15 18:37:15;;;;;;;1.52;1.30;;;;;;;24.70;40.84;98759.38;5115168;28;20027;-72
2021/06/15 18:39:40;;;;;;;3.10;1.25;;;;;;;24.52;41.43;98766.13;5115352;28;20016;-72
2021/06/15 18:42:06;;;;;;;3.88;1.33;;;;;;;24.52;41.16;98766.13;5115121;28;20027;-72
2021/06/15 18:44:31;;;;;;;3.30;1.80;;;;;;;24.27;42.42;98767.91;5115166;28;20026;-71
2021/06/15 18:46:57;;;;;;;7.68;1.75;;;;;;;24.10;42.83;98768.31;5114945;28;20114;-73
2021/06/15 18:49:25;;;;;;;5.05;1.30;;;;;;;24.03;43.18;98769.69;5115339;28;20027;-74
2021/06/15 18:51:51;;;;;;;6.68;1.45;;;;;;;23.83;43.20;98773.81;5115114;28;20572;-72
2021/06/15 18:54:17;;;;;;;4.40;1.85;;;;;;;23.63;43.16;98767.28;5115134;28;20024;-72
2021/06/15 18:56:43;;;;;;;5.03;1.27;;;;;;;23.57;43.43;98767.72;5114779;28;20069;-72
2021/06/15 18:59:10;;;;;;;5.10;1.58;;;;;;;23.42;43.98;98766.16;5114836;28;20031;-72
2021/06/15 19:01:36;;;;;;;5.80;1.65;;;;;;;23.36;44.20;98763.97;5115051;28;20430;-72
2021/06/15 19:04:03;;;;;;;4.15;1.73;;;;;;;23.29;45.36;98764.38;5114839;28;20095;-72
2021/06/15 19:06:29;;;;;;;4.35;1.55;;;;;;;23.08;45.85;98761.44;5114633;28;20019;-72
2021/06/15 19:08:54;;;;;;;3.47;1.92;;;;;;;22.98;46.29;98770.97;5114740;28;20019;-72
2021/06/15 19:11:20;;;;;;;2.40;1.38;;;;;;;23.00;46.59;98768.19;5114633;28;20030;-72
2021/06/15 19:13:46;;;;;;;3.90;1.55;;;;;;;22.84;46.07;98774.53;5114691;28;20095;-72
2021/06/15 19:16:12;;;;;;;3.65;1.48;;;;;;;22.83;46.96;98777.28;5114401;28;20047;-72
2021/06/15 19:18:42;;;;;;;6.60;1.60;;;;;;;22.61;47.26;98772.59;5096273;28;20027;-72
2021/06/15 19:21:11;;;;;;;4.57;1.75;;;;;;;22.70;47.19;98777.25;5114508;28;20468;-72
2021/06/15 19:23:44;;;;;;;4.45;1.58;;;;;;;22.55;47.41;98770.38;5114370;28;20031;-72
2021/06/15 19:26:24;;;;;;;4.03;1.48;;;;;;;22.52;47.87;98770.56;5114266;28;20784;-72
2021/06/15 19:28:50;;;;;;;3.10;1.60;;;;;;;;;;5114449;28;20034;-72
2021/06/15 19:31:16;;;;;;;4.85;1.35;;;;;;;22.39;48.33;98773.19;5114293;28;20094;-72
2021/06/15 19:33:42;;;;;;;3.47;2.17;;;;;;;22.37;48.22;98774.22;5114276;28;20015;-72
2021/06/15 19:36:09;;;;;;;3.72;1.80;;;;;;;22.29;48.72;98780.88;5114118;28;20019;-72
2021/06/15 19:38:34;;;;;;;2.42;1.42;;;;;;;22.17;48.47;98781.66;5114095;28;20034;-72
2021/06/15 19:41:00;;;;;;;1.88;1.45;;;;;;;22.19;48.92;98792.13;5113950;28;20024;-72
2021/06/15 19:43:25;;;;;;;5.32;1.73;;;;;;;22.12;48.99;98790.84;5114029;28;20074;-76
2021/06/15 19:45:52;;;;;;;7.25;1.90;;;;;;;22.03;49.13;98797.50;5112996;28;20030;-74
2021/06/15 19:48:19;;;;;;;3.20;1.70;;;;;;;21.87;49.78;98794.19;5113817;28;20028;-74
2021/06/15 19:50:44;;;;;;;5.40;2.20;;;;;;;21.81;49.86;98790.16;5113832;28;20055;-74
2021/06/15 19:53:10;;;;;;;8.48;2.30;;;;;;;21.87;48.81;98799.44;5113865;28;20043;-74
2021/06/15 19:55:37;;;;;;;2.63;1.70;;;;;;;21.80;48.41;98802.47;5113846;28;20031;-74
2021/06/15 19:58:02;;;;;;;5.50;1.70;;;;;;;21.67;48.93;98801.56;5113545;28;20057;-74
2021/06/15 20:00:28;;;;;;;5.32;1.58;;;;;;;21.61;49.10;98801.94;5113884;28;20024;-73
2021/06/15 20:02:54;;;;;;;4.93;1.77;;;;;;;21.49;48.87;98802.72;5113370;28;20023;-72
2021/06/15 20:05:22;;;;;;;3.20;1.50;;;;;;;21.49;48.85;98810.63;5113606;28;20059;-72
2021/06/15 20:07:48;;;;;;;2.95;1.88;;;;;;;21.42;49.97;98806.66;5113128;28;20444;-72
2021/06/15 20:10:14;;;;;;;4.68;1.70;;;;;;;21.51;49.43;98806.09;5113431;28;20077;-72
2021/06/15 20:12:41;;;;;;;3.40;1.45;;;;;;;21.45;49.93;98801.19;5113425;28;20057;-71
2021/06/15 20:15:08;;;;;;;5.80;1.60;;;;;;;21.36;49.73;98801.78;5113404;28;20019;-72
2021/06/15 20:17:33;;;;;;;2.17;1.50;;;;;;;21.28;52.00;98800.44;5112860;28;20039;-72
2021/06/15 20:19:59;;;;;;;5.38;1.60;;;;;;;21.32;51.46;98806.38;5113214;28;20019;-72
2021/06/15 20:22:25;;;;;;;2.08;1.75;;;;;;;21.27;52.13;98804.00;5113126;28;20189;-72
2021/06/15 20:24:50;;;;;;;5.43;1.90;;;;;;;21.18;52.12;98799.31;5113092;28;20491;-72
2021/06/15 20:27:15;;;;;;;4.88;1.88;;;;;;;21.04;53.54;98800.13;5112789;28;20023;-72
2021/06/15 20:29:41;;;;;;;2.47;1.65;;;;;;;20.83;53.91;98804.03;5113161;28;20019;-74
2021/06/15 20:32:07;;;;;;;3.35;1.80;;;;;;;20.78;54.19;98800.84;5112957;28;20042;-74
2021/06/15 20:34:33;;;;;;;2.88;1.58;;;;;;;20.81;53.75;98805.94;5112983;28;20047;-75
2021/06/15 20:36:58;;;;;;;3.30;1.88;;;;;;;20.76;54.23;98806.19;5112609;28;20435;-74
2021/06/15 20:39:23;;;;;;;5.00;1.95;;;;;;;20.70;54.44;98803.94;5112877;28;20016;-74
2021/06/15 20:41:49;;;;;;;5.05;2.03;;;;;;;20.63;55.46;98818.38;5112653;28;20116;-74
2021/06/15 20:44:14;;;;;;;5.07;2.13;;;;;;;20.54;56.65;98813.66;5112793;28;20076;-74
2021/06/15 20:46:40;;;;;;;3.05;2.03;;;;;;;20.52;56.74;98815.53;5112578;28;20026;-75
2021/06/15 20:49:06;;;;;;;3.72;1.88;;;;;;;20.48;57.08;98819.28;5112587;28;20393;-75
2021/06/15 20:51:32;;;;;;;3.15;2.10;;;;;;;20.41;57.36;98817.91;5112727;28;20098;-72
2021/06/15 20:53:58;;;;;;;7.60;2.10;;;;;;;20.18;57.76;98817.44;5112585;28;20108;-72
2021/06/15 20:56:23;;;;;;;5.97;1.95;;;;;;;20.16;57.94;98821.94;5112560;28;20030;-72
2021/06/15 20:58:48;;;;;;;8.35;2.47;;;;;;;20.19;58.38;98819.13;5112266;28;20167;-72
2021/06/15 21:01:14;;;;;;;2.92;1.98;;;;;;;20.09;59.19;98817.94;5112631;28;20023;-72
2021/06/15 21:03:39;;;;;;;6.45;2.25;;;;;;;19.87;59.57;98825.31;5094092;28;20046;-74
2021/06/15 21:06:05;;;;;;;3.10;2.30;;;;;;;20.04;58.95;98820.00;5094149;28;20111;-75
2021/06/15 21:08:30;;;;;;;3.10;1.92;;;;;;;19.85;59.63;98820.16;5112427;28;20019;-74
2021/06/15 21:10:55;;;;;;;5.05;2.15;;;;;;;19.84;59.61;98822.88;5112457;28;20034;-74
2021/06/15 21:13:21;;;;;;;5.55;1.98;;;;;;;19.86;59.74;98821.00;5112325;28;20111;-74
2021/06/15 21:15:46;;;;;;;2.88;1.55;;;;;;;19.72;60.33;98814.72;5112438;28;20023;-74
2021/06/15 21:18:12;;;;;;;4.10;2.08;;;;;;;19.86;60.25;98818.38;5111972;28;20396;-75
2021/06/15 21:20:37;;;;;;;3.15;2.03;;;;;;;19.76;60.17;98821.50;5112327;28;20604;-75
2021/06/15 21:23:03;;;;;;;2.17;1.80;;;;;;;19.71;60.47;98826.16;5112114;28;20427;-72
2021/06/15 21:25:29;;;;;;;4.88;2.20;;;;;;;19.63;60.50;98823.13;5112350;28;20476;-75
2021/06/15 21:27:54;;;;;;;3.25;2.00;;;;;;;19.57;60.73;98826.03;5111865;28;20655;-73
2021/06/15 21:30:20;;;;;;;3.30;2.17;;;;;;;19.60;60.63;98825.91;5112284;28;20023;-74
2021/06/15 21:32:46;;;;;;;3.72;2.45;;;;;;;19.42;61.08;98826.84;5112155;28;20015;-73
2021/06/15 21:37:42;;;;;;;2.95;2.22;;;;;;;19.46;62.07;98823.16;5162967;27;20841;-74
2021/06/15 21:40:08;;;;;;;4.85;2.40;;;;;;;19.42;62.32;98816.34;5150751;27;20035;-71
2021/06/15 21:42:34;;;;;;;3.83;2.58;;;;;;;19.23;62.01;98827.81;5151345;27;20023;-71
2021/06/15 21:44:59;;;;;;;2.75;2.10;;;;;;;19.38;61.83;98820.06;5150951;27;20101;-71
2021/06/15 21:47:24;;;;;;;3.25;2.08;;;;;;;19.31;62.51;98823.97;5150638;27;20023;-71
2021/06/15 21:49:50;;;;;;;4.18;2.10;;;;;;;19.36;62.40;98821.94;5150259;27;20402;-71
2021/06/15 21:52:15;;;;;;;5.35;2.10;;;;;;;19.35;62.08;98825.50;5149128;27;20523;-71
2021/06/15 21:54:40;;;;;;;4.38;2.13;;;;;;;19.12;62.87;98829.34;5148770;27;20046;-71
2021/06/15 21:57:06;;;;;;;3.85;2.25;;;;;;;18.95;63.34;98827.56;5148495;27;20026;-73
2021/06/15 21:59:31;;;;;;;5.97;2.53;;;;;;;18.90;63.86;98824.31;5148806;27;20027;-72
2021/06/15 22:01:57;;;;;;;4.93;2.55;;;;;;;18.85;63.52;98821.94;5148693;27;20109;-71
2021/06/15 22:04:22;;;;;;;4.70;2.25;;;;;;;18.88;63.74;98818.31;5149191;27;20029;-71
2021/06/15 22:06:48;;;;;;;4.68;1.92;;;;;;;18.78;64.52;98815.31;5150175;27;20524;-73
2021/06/15 22:09:14;;;;;;;3.60;2.63;;;;;;;18.62;64.85;98815.22;5150391;27;20495;-74
2021/06/15 22:11:40;;;;;;;3.63;2.75;;;;;;;18.61;65.02;98810.84;5150501;27;20023;-74
2021/06/15 22:14:07;;;;;;;3.53;2.40;;;;;;;18.62;65.33;98814.34;5150369;27;20030;-72
2021/06/15 22:16:38;;;;;;;4.65;2.60;;;;;;;18.43;65.69;98806.56;5150112;27;20034;-72
2021/06/15 22:19:06;;;;;;;3.03;2.50;;;;;;;18.39;66.32;98812.88;5150267;27;20023;-72
2021/06/15 22:21:32;;;;;;;5.35;2.55;;;;;;;18.33;66.36;98807.94;5150489;27;20025;-72
2021/06/15 22:23:57;;;;;;;4.57;2.72;;;;;;;18.22;66.86;98809.28;5150124;27;20019;-73
2021/06/15 22:26:22;;;;;;;3.63;2.72;;;;;;;18.31;67.01;98799.28;5150149;27;20027;-73
2021/06/15 22:28:48;;;;;;;11.38;2.60;;;;;;;18.33;66.70;98805.31;5150031;27;20015;-71
2021/06/15 22:31:13;;;;;;;3.53;2.40;;;;;;;18.21;67.39;98799.72;5150089;27;20391;-74
2021/06/15 22:33:38;;;;;;;4.85;2.72;;;;;;;18.28;67.56;98804.69;5150053;27;20034;-73
2021/06/15 22:36:04;;;;;;;7.40;2.55;;;;;;;18.26;67.59;98806.50;5149888;27;20034;-74
2021/06/15 22:38:29;;;;;;;6.15;2.42;;;;;;;18.19;67.95;98796.34;5149937;27;20071;-73
2021/06/15 22:40:54;;;;;;;4.45;2.60;;;;;;;18.13;67.73;98796.63;5149972;27;20087;-73
2021/06/15 22:43:21;;;;;;;9.98;2.90;;;;;;;18.05;68.03;98793.53;5149831;27;20474;-74
2021/06/15 22:45:46;;;;;;;9.73;3.05;;;;;;;18.03;68.32;98797.97;5149778;27;20436;-73
2021/06/15 22:48:12;;;;;;;5.80;2.97;;;;;;;17.98;68.85;98799.97;5140691;27;20069;-72
2021/06/15 22:50:37;;;;;;;3.53;2.65;;;;;;;17.98;68.54;98799.97;5135936;27;20062;-71
2021/06/15 22:53:03;;;;;;;9.00;3.30;;;;;;;17.92;69.12;98797.66;5135803;27;20062;-72
2021/06/15 22:55:28;;;;;;;6.55;2.58;;;;;;;17.83;69.32;98795.47;5135745;27;20469;-72
2021/06/15 22:57:54;;;;;;;3.63;2.72;;;;;;;17.79;69.96;98792.13;5135575;27;20033;-74
2021/06/15 23:00:26;;;;;;;9.90;3.40;;;;;;;17.75;70.39;98789.75;5135606;27;20023;-74
2021/06/15 23:02:52;;;;;;;3.05;2.85;;;;;;;17.70;70.22;98782.91;5136040;27;20019;-72
2021/06/15 23:05:18;;;;;;;3.33;3.03;;;;;;;17.66;70.77;98786.59;5135593;27;20387;-71
2021/06/15 23:07:44;;;;;;;4.63;2.90;;;;;;;17.62;71.42;98785.03;5135510;27;20025;-74
2021/06/15 23:10:12;;;;;;;5.10;3.00;;;;;;;17.54;71.91;98784.53;5135510;27;20480;-74
2021/06/15 23:12:37;;;;;;;4.25;2.70;;;;;;;17.51;72.05;98784.69;5135527;27;20483;-74
2021/06/15 23:15:06;;;;;;;11.45;3.38;;;;;;;17.54;71.62;98787.16;5135370;27;20027;-74
2021/06/15 23:17:31;;;;;;;3.85;2.80;;;;;;;17.55;71.72;98788.88;5135306;27;20031;-74
2021/06/15 23:19:59;;;;;;;4.30;3.08;;;;;;;17.54;72.27;98781.91;5135292;27;20456;-74
2021/06/15 23:22:24;;;;;;;3.53;2.80;;;;;;;17.54;72.27;98781.91;5135252;27;20023;-72
2021/06/15 23:24:49;;;;;;;4.68;3.28;;;;;;;17.51;72.63;98784.69;5135243;27;20038;-74
2021/06/15 23:27:15;;;;;;;3.50;2.80;;;;;;;17.45;72.63;98787.56;5134966;27;20060;-74
2021/06/15 23:29:40;;;;;;;6.30;2.92;;;;;;;17.50;72.68;98785.59;5135090;27;20516;-72
2021/06/15 23:32:06;;;;;;;6.53;3.60;;;;;;;17.44;72.89;98781.47;5135109;27;20361;-72
2021/06/15 23:34:32;;;;;;;4.18;3.03;;;;;;;17.45;73.12;98785.84;5135202;27;20027;-72
2021/06/15 23:36:57;;;;;;;4.15;2.80;;;;;;;17.45;73.00;98777.09;5134438;27;20023;-72
2021/06/15 23:39:22;;;;;;;7.30;3.17;;;;;;;17.43;73.11;98789.41;5134808;27;20031;-71
2021/06/15 23:41:48;;;;;;;3.70;3.35;;;;;;;17.40;73.64;98777.31;5135070;27;20034;-71
2021/06/15 23:44:13;;;;;;;6.88;3.13;;;;;;;17.32;73.90;98786.44;5134805;27;20051;-74
2021/06/15 23:46:39;;;;;;;12.10;3.33;;;;;;;17.32;74.24;98786.44;5134659;27;20046;-73
2021/06/15 23:49:04;;;;;;;8.52;3.08;;;;;;;17.39;74.18;98782.63;5134625;27;20099;-74
2021/06/15 23:51:29;;;;;;;11.20;3.50;;;;;;;17.43;74.15;98773.72;5134839;27;20110;-72
2021/06/15 23:53:55;;;;;;;6.30;3.40;;;;;;;17.54;74.21;98781.91;5134710;27;20463;-72
2021/06/15 23:56:20;;;;;;;7.25;3.30;;;;;;;17.49;74.17;98773.41;5134323;27;20468;-72
2021/06/15 23:58:46;;;;;;;7.07;3.33;;;;;;;17.43;74.02;98778.94;5134025;27;20020;-72
